createdAt,value
2022-12-01T00:01:10.478Z,15.65
2022-12-01T00:03:37.726Z,16.20
2022-12-01T00:06:11.703Z,14.63
2022-12-01T00:08:38.968Z,16.67
2022-12-01T00:11:12.263Z,15.77
2022-12-01T00:13:40.097Z,16.15
2022-12-01T00:16:16.017Z,15.18
2022-12-01T00:18:43.642Z,14.13
2022-12-01T00:21:15.667Z,13.97
2022-12-01T00:23:52.408Z,15.38
2022-12-01T00:26:20.607Z,15.57
2022-12-01T00:28:58.283Z,15.18
2022-12-01T00:31:25.544Z,15.35
2022-12-01T00:33:53.086Z,14.60
2022-12-01T00:36:20.006Z,14.98
2022-12-01T00:38:47.138Z,15.75
2022-12-01T00:41:14.187Z,14.98
2022-12-01T00:43:41.378Z,15.40
2022-12-01T00:46:08.842Z,15.90
2022-12-01T00:48:35.847Z,14.52
2022-12-01T00:51:03.301Z,14.88
2022-12-01T00:53:30.754Z,13.25
2022-12-01T00:55:57.641Z,15.45
2022-12-01T00:58:25.112Z,13.67
2022-12-01T01:00:59.246Z,14.73
2022-12-01T01:03:30.206Z,14.52
2022-12-01T01:05:57.457Z,13.98
2022-12-01T01:08:24.278Z,12.98
2022-12-01T01:10:51.068Z,13.50
2022-12-01T01:13:18.292Z,13.93
2022-12-01T01:15:45.263Z,14.25
2022-12-01T01:18:12.833Z,14.07
2022-12-01T01:20:39.787Z,13.68
2022-12-01T01:23:06.707Z,13.77
2022-12-01T01:25:33.873Z,13.88
2022-12-01T01:28:00.713Z,13.35
2022-12-01T01:30:27.669Z,14.05
2022-12-01T01:32:54.512Z,13.65
2022-12-01T01:35:21.533Z,13.47
2022-12-01T01:37:50.262Z,13.77
2022-12-01T01:40:17.628Z,13.70
2022-12-01T01:42:44.460Z,13.80
2022-12-01T01:45:19.985Z,13.73
2022-12-01T01:47:47.855Z,13.30
2022-12-01T01:50:18.638Z,14.23
2022-12-01T01:52:54.046Z,13.80
2022-12-01T01:55:21.121Z,14.57
2022-12-01T01:57:47.967Z,14.23
2022-12-01T02:00:19.183Z,13.73
2022-12-01T02:02:47.784Z,12.85
2022-12-01T02:05:24.053Z,15.52
2022-12-01T02:07:53.657Z,14.25
2022-12-01T02:10:24.814Z,13.93
2022-12-01T02:13:00.888Z,14.63
2022-12-01T02:16:07.112Z,13.27
2022-12-01T02:18:56.472Z,14.57
2022-12-01T02:21:54.738Z,14.52
2022-12-01T02:24:45.562Z,13.27
2022-12-01T02:27:53.474Z,13.53
2022-12-01T02:30:30.305Z,14.38
2022-12-01T02:32:57.131Z,13.07
2022-12-01T02:35:48.029Z,15.13
2022-12-01T02:38:25.632Z,14.98
2022-12-01T02:41:35.583Z,13.50
2022-12-01T02:44:14.454Z,13.25
2022-12-01T02:46:53.416Z,14.75
2022-12-01T02:49:26.625Z,14.15
2022-12-01T02:51:56.235Z,14.63
2022-12-01T02:54:25.698Z,14.37
2022-12-01T02:56:53.949Z,14.48
2022-12-01T02:59:20.867Z,14.27
2022-12-01T03:02:15.000Z,13.07
2022-12-01T03:04:44.772Z,13.95
2022-12-01T03:07:36.423Z,14.67
2022-12-01T03:10:18.040Z,13.93
2022-12-01T03:12:58.254Z,14.55
2022-12-01T03:15:53.503Z,13.60
2022-12-01T03:18:28.947Z,15.07
2022-12-01T03:21:08.497Z,13.87
2022-12-01T03:23:41.162Z,13.50
2022-12-01T03:26:12.111Z,13.43
2022-12-01T03:28:45.837Z,14.93
2022-12-01T03:31:20.218Z,14.45
2022-12-01T03:33:52.737Z,13.77
2022-12-01T03:36:27.863Z,14.40
2022-12-01T03:39:05.175Z,13.30
2022-12-01T03:41:38.147Z,14.63
2022-12-01T03:44:11.484Z,14.05
2022-12-01T03:46:47.473Z,13.50
2022-12-01T03:49:17.283Z,12.73
2022-12-01T03:51:56.321Z,14.27
2022-12-01T03:55:04.710Z,13.52
2022-12-01T03:57:38.731Z,13.95
2022-12-01T04:00:07.086Z,14.17
2022-12-01T04:02:34.260Z,13.85
2022-12-01T04:05:01.160Z,13.45
2022-12-01T04:07:28.003Z,14.43
2022-12-01T04:09:54.998Z,13.25
2022-12-01T04:12:30.952Z,13.23
2022-12-01T04:14:59.014Z,13.23
2022-12-01T04:17:26.767Z,14.43
2022-12-01T04:19:54.163Z,14.55
2022-12-01T04:22:21.247Z,14.32
2022-12-01T04:24:48.102Z,14.17
2022-12-01T04:27:15.272Z,14.93
2022-12-01T04:29:42.099Z,14.45
2022-12-01T04:32:09.218Z,13.85
2022-12-01T04:34:36.099Z,14.65
2022-12-01T04:37:03.826Z,12.77
2022-12-01T04:39:30.580Z,13.55
2022-12-01T04:41:57.551Z,13.48
2022-12-01T04:44:24.403Z,13.90
2022-12-01T04:46:53.075Z,15.00
2022-12-01T04:49:21.729Z,15.00
2022-12-01T04:51:49.348Z,13.32
2022-12-01T04:54:17.059Z,13.52
2022-12-01T04:56:43.932Z,13.60
2022-12-01T04:59:11.321Z,14.15
2022-12-01T05:01:38.577Z,14.07
2022-12-01T05:04:05.461Z,15.10
2022-12-01T05:06:32.527Z,13.80
2022-12-01T05:09:01.946Z,15.45
2022-12-01T05:11:30.775Z,13.90
2022-12-01T05:13:58.137Z,14.43
2022-12-01T05:16:29.032Z,14.95
2022-12-01T05:19:24.593Z,14.18
2022-12-01T05:21:51.852Z,12.82
2022-12-01T05:24:20.427Z,14.30
2022-12-01T05:26:47.664Z,14.23
2022-12-01T05:29:14.940Z,13.73
2022-12-01T05:31:41.816Z,13.45
2022-12-01T05:34:09.053Z,13.13
2022-12-01T05:36:36.692Z,13.60
2022-12-01T05:39:05.031Z,13.90
2022-12-01T05:41:32.145Z,14.77
2022-12-01T05:43:59.048Z,13.65
2022-12-01T05:46:26.030Z,14.45
2022-12-01T05:48:52.992Z,13.82
2022-12-01T05:51:19.911Z,14.37
2022-12-01T05:53:46.978Z,13.02
2022-12-01T05:56:13.923Z,15.50
2022-12-01T05:58:40.849Z,14.32
2022-12-01T06:01:07.806Z,13.65
2022-12-01T06:03:34.651Z,13.73
2022-12-01T06:06:01.813Z,14.57
2022-12-01T06:08:28.611Z,14.60
2022-12-01T06:10:55.428Z,13.18
2022-12-01T06:13:22.251Z,14.43
2022-12-01T06:15:59.387Z,14.40
2022-12-01T06:18:27.578Z,13.30
2022-12-01T06:20:54.495Z,13.70
2022-12-01T06:23:21.294Z,15.63
2022-12-01T06:25:49.187Z,13.23
2022-12-01T06:28:17.081Z,14.50
2022-12-01T06:30:44.024Z,13.38
2022-12-01T06:33:11.072Z,14.00
2022-12-01T06:35:38.104Z,14.13
2022-12-01T06:38:05.332Z,14.40
2022-12-01T06:40:32.523Z,14.10
2022-12-01T06:43:04.055Z,14.25
2022-12-01T06:45:31.853Z,14.35
2022-12-01T06:47:58.890Z,14.82
2022-12-01T06:50:29.505Z,15.55
2022-12-01T06:52:59.019Z,14.20
2022-12-01T06:55:26.239Z,14.77
2022-12-01T06:57:53.405Z,14.90
2022-12-01T07:00:20.596Z,13.88
2022-12-01T07:02:47.603Z,15.50
2022-12-01T07:05:14.601Z,14.47
2022-12-01T07:07:41.710Z,14.63
2022-12-01T07:10:10.707Z,15.85
2022-12-01T07:12:38.218Z,16.17
2022-12-01T07:15:08.971Z,15.45
2022-12-01T07:17:36.858Z,14.90
2022-12-01T07:20:04.320Z,13.52
2022-12-01T07:22:33.006Z,13.65
2022-12-01T07:25:00.118Z,14.80
2022-12-01T07:27:30.369Z,14.32
2022-12-01T07:29:57.299Z,15.53
2022-12-01T07:32:24.234Z,15.32
2022-12-01T07:34:51.268Z,16.02
2022-12-01T07:37:18.154Z,14.88
2022-12-01T07:39:45.121Z,15.05
2022-12-01T07:42:12.041Z,15.07
2022-12-01T07:44:39.033Z,16.92
2022-12-01T07:47:05.961Z,15.07
2022-12-01T07:49:34.444Z,14.73
2022-12-01T07:52:01.330Z,16.17
2022-12-01T07:54:28.284Z,16.23
2022-12-01T07:56:55.365Z,15.38
2022-12-01T07:59:22.255Z,15.88
2022-12-01T08:01:49.148Z,17.77
2022-12-01T08:04:16.037Z,17.95
2022-12-01T08:06:42.976Z,16.67
2022-12-01T08:09:09.839Z,16.95
2022-12-01T08:11:36.795Z,16.45
2022-12-01T08:14:03.826Z,17.08
2022-12-01T08:16:31.663Z,17.20
2022-12-01T08:18:58.637Z,17.40
2022-12-01T08:21:25.688Z,16.17
2022-12-01T08:23:57.418Z,17.08
2022-12-01T08:26:25.605Z,16.58
2022-12-01T08:28:52.538Z,16.98
2022-12-01T08:31:21.243Z,16.97
2022-12-01T08:33:49.393Z,17.08
2022-12-01T08:36:17.641Z,15.95
2022-12-01T08:38:45.953Z,16.00
2022-12-01T08:41:13.851Z,15.80
2022-12-01T08:43:57.946Z,16.17
2022-12-01T08:46:33.289Z,15.95
2022-12-01T08:49:01.137Z,16.90
2022-12-01T08:51:28.834Z,18.30
2022-12-01T08:53:57.629Z,18.50
2022-12-01T08:56:26.232Z,19.53
2022-12-01T08:58:54.476Z,18.08
2022-12-01T09:01:22.009Z,18.73
2022-12-01T09:03:49.338Z,16.27
2022-12-01T09:06:20.456Z,17.48
2022-12-01T09:08:48.285Z,17.47
2022-12-01T09:11:18.958Z,16.50
2022-12-01T09:13:52.983Z,17.15
2022-12-01T09:16:22.099Z,18.58
2022-12-01T09:18:49.328Z,18.23
2022-12-01T09:21:19.130Z,17.43
2022-12-01T09:23:47.012Z,18.48
2022-12-01T09:26:18.697Z,18.40
2022-12-01T09:28:47.168Z,18.02
2022-12-01T09:31:15.421Z,17.13
2022-12-01T09:33:42.858Z,17.17
2022-12-01T09:36:10.830Z,18.05
2022-12-01T09:38:39.243Z,18.65
2022-12-01T09:41:19.399Z,19.02
2022-12-01T09:43:53.964Z,17.92
2022-12-01T09:46:26.438Z,17.70
2022-12-01T09:48:57.491Z,17.27
2022-12-01T09:51:28.736Z,18.25
2022-12-01T09:53:59.286Z,17.98
2022-12-01T09:56:32.532Z,18.02
2022-12-01T09:59:08.309Z,17.63
2022-12-01T10:01:38.654Z,19.02
2022-12-01T10:04:14.949Z,18.48
2022-12-01T10:06:55.163Z,18.48
2022-12-01T10:09:32.854Z,18.70
2022-12-01T10:12:09.280Z,18.60
2022-12-01T10:14:37.660Z,19.02
2022-12-01T10:17:15.538Z,19.17
2022-12-01T10:19:51.335Z,18.60
2022-12-01T10:22:59.916Z,18.88
2022-12-01T10:25:28.951Z,19.20
2022-12-01T10:28:12.666Z,18.33
2022-12-01T10:30:50.384Z,19.17
2022-12-01T10:33:34.319Z,17.63
2022-12-01T10:36:01.507Z,17.67
2022-12-01T10:38:31.858Z,20.00
2022-12-01T10:41:01.171Z,18.65
2022-12-01T10:43:48.617Z,17.88
2022-12-01T10:46:30.440Z,20.40
2022-12-01T10:48:59.704Z,17.35
2022-12-01T10:51:28.038Z,19.20
2022-12-01T10:54:11.565Z,18.13
2022-12-01T10:56:41.191Z,18.38
2022-12-01T10:59:25.697Z,19.48
2022-12-01T11:01:53.732Z,18.17
2022-12-01T11:04:46.460Z,17.73
2022-12-01T11:07:25.921Z,17.38
2022-12-01T11:10:18.751Z,19.00
2022-12-01T11:12:53.787Z,17.88
2022-12-01T11:15:25.031Z,17.83
2022-12-01T11:18:04.451Z,18.27
2022-12-01T11:20:38.417Z,17.60
2022-12-01T11:23:26.940Z,17.55
2022-12-01T11:25:56.744Z,18.45
2022-12-01T11:28:24.195Z,18.52
2022-12-01T11:31:09.216Z,17.43
2022-12-01T11:33:52.378Z,16.75
2022-12-01T11:36:43.539Z,18.15
2022-12-01T11:39:24.784Z,16.27
2022-12-01T11:41:57.178Z,17.05
2022-12-01T11:47:25.004Z,18.17
2022-12-01T11:49:56.756Z,15.73
2022-12-01T11:52:30.806Z,16.15
2022-12-01T11:55:11.414Z,15.40
2022-12-01T11:57:42.869Z,16.20
2022-12-01T12:00:17.700Z,16.50
2022-12-01T12:03:16.383Z,16.05
2022-12-01T12:09:28.258Z,16.17
2022-12-01T12:12:14.666Z,16.70
2022-12-01T12:15:01.399Z,14.73
2022-12-01T12:17:44.401Z,16.63
2022-12-01T12:20:12.055Z,16.27
2022-12-01T12:23:00.434Z,16.92
2022-12-01T12:25:53.387Z,17.87
2022-12-01T12:28:23.073Z,17.65
2022-12-01T12:30:56.751Z,16.45
2022-12-01T12:33:39.545Z,17.13
2022-12-01T12:36:24.871Z,16.70
2022-12-01T12:39:06.640Z,17.40
2022-12-01T12:41:52.496Z,16.42
2022-12-01T12:44:36.820Z,16.65
2022-12-01T12:47:41.956Z,16.33
2022-12-01T12:50:32.326Z,15.98
2022-12-01T12:53:10.066Z,15.60
2022-12-01T12:55:43.396Z,16.02
2022-12-01T12:58:39.048Z,15.15
2022-12-01T13:01:16.014Z,14.52
2022-12-01T13:03:51.764Z,15.13
2022-12-01T13:06:25.708Z,15.20
2022-12-01T13:09:03.768Z,14.90
2022-12-01T13:11:55.555Z,15.82
2022-12-01T13:14:30.926Z,15.52
2022-12-01T13:17:09.214Z,16.42
2022-12-01T13:19:39.811Z,15.10
2022-12-01T13:22:09.905Z,15.68
2022-12-01T13:24:36.983Z,16.83
2022-12-01T13:27:13.296Z,15.70
2022-12-01T13:29:46.898Z,14.60
2022-12-01T13:32:29.388Z,16.17
2022-12-01T13:34:57.265Z,16.55
2022-12-01T13:37:33.160Z,15.63
2022-12-01T13:40:30.517Z,15.65
2022-12-01T13:43:10.480Z,16.05
2022-12-01T13:45:40.701Z,14.83
2022-12-01T13:48:47.022Z,15.75
2022-12-01T13:51:14.056Z,14.98
2022-12-01T13:53:57.644Z,14.80
2022-12-01T13:56:45.976Z,15.50
2022-12-01T13:59:41.807Z,14.73
2022-12-01T14:02:20.945Z,15.93
2022-12-01T14:04:48.099Z,14.48
2022-12-01T14:07:35.618Z,14.52
2022-12-01T14:10:21.144Z,15.57
2022-12-01T14:12:49.504Z,14.43
2022-12-01T14:15:31.979Z,15.18
2022-12-01T14:18:02.819Z,14.90
2022-12-01T14:20:34.205Z,14.60
2022-12-01T14:23:30.748Z,15.40
2022-12-01T14:26:44.915Z,13.93
2022-12-01T14:29:43.596Z,13.70
2022-12-01T14:32:10.419Z,14.38
2022-12-01T14:34:38.669Z,14.65
2022-12-01T14:37:16.618Z,16.08
2022-12-01T14:39:59.045Z,14.77
2022-12-01T14:42:58.579Z,15.57
2022-12-01T14:45:35.671Z,15.05
2022-12-01T14:48:05.777Z,15.70
2022-12-01T14:50:46.352Z,15.15
2022-12-01T14:53:16.826Z,13.63
2022-12-01T14:55:53.637Z,13.85
2022-12-01T14:58:29.083Z,14.07
2022-12-01T15:01:02.395Z,14.25
2022-12-01T15:03:36.606Z,14.45
2022-12-01T15:06:03.973Z,13.47
2022-12-01T15:08:41.880Z,13.68
2022-12-01T15:11:25.793Z,12.85
2022-12-01T15:13:57.714Z,13.38
2022-12-01T15:16:32.568Z,14.20
2022-12-01T15:18:59.563Z,13.10
2022-12-01T15:21:31.447Z,13.30
2022-12-01T15:24:06.170Z,13.60
2022-12-01T15:26:45.955Z,13.15
2022-12-01T15:29:19.453Z,14.75
2022-12-01T15:32:01.009Z,13.57
2022-12-01T15:34:31.076Z,13.45
2022-12-01T15:37:06.470Z,12.95
2022-12-01T15:39:37.358Z,13.63
2022-12-01T15:42:05.156Z,14.23
2022-12-01T15:44:35.301Z,14.23
2022-12-01T15:47:36.063Z,14.32
2022-12-01T15:50:05.600Z,15.30
2022-12-01T15:52:42.699Z,13.40
2022-12-01T15:55:25.021Z,13.95
2022-12-01T15:57:52.375Z,15.47
2022-12-01T16:00:23.325Z,14.80
2022-12-01T16:02:53.679Z,15.30
2022-12-01T16:05:27.751Z,14.45
2022-12-01T16:10:42.763Z,12.17
2022-12-01T16:13:47.263Z,12.52
2022-12-01T16:16:44.126Z,13.55
2022-12-01T16:19:11.032Z,11.77
2022-12-01T16:22:00.476Z,13.45
2022-12-01T16:24:32.633Z,13.00
2022-12-01T16:27:07.011Z,13.93
2022-12-01T16:29:57.868Z,14.70
2022-12-01T16:32:38.570Z,13.32
2022-12-01T16:35:26.696Z,15.50
2022-12-01T16:37:55.143Z,14.90
2022-12-01T16:40:22.913Z,14.77
2022-12-01T16:42:50.415Z,15.65
2022-12-01T16:45:19.113Z,15.23
2022-12-01T16:47:48.260Z,16.40
2022-12-01T16:50:20.994Z,14.93
2022-12-01T16:52:48.338Z,15.43
2022-12-01T16:55:39.966Z,15.55
2022-12-01T16:58:07.228Z,16.80
2022-12-01T17:00:35.429Z,15.80
2022-12-01T17:03:02.425Z,16.13
2022-12-01T17:05:29.671Z,16.17
2022-12-01T17:07:57.159Z,16.45
2022-12-01T17:10:24.591Z,16.55
2022-12-01T17:12:52.258Z,15.88
2022-12-01T17:15:19.436Z,16.20
2022-12-01T17:17:46.493Z,15.32
2022-12-01T17:20:13.852Z,19.70
2022-12-01T17:22:40.697Z,19.77
2022-12-01T17:25:09.853Z,17.92
2022-12-01T17:27:38.375Z,18.13
2022-12-01T17:30:06.910Z,18.00
2022-12-01T17:32:34.238Z,17.58
2022-12-01T17:35:01.356Z,17.52
2022-12-01T17:37:28.602Z,17.25
2022-12-01T17:39:55.703Z,16.03
2022-12-01T17:42:22.902Z,18.02
2022-12-01T17:44:50.272Z,19.30
2022-12-01T17:47:17.673Z,19.90
2022-12-01T17:49:44.713Z,18.52
2022-12-01T17:52:12.110Z,18.53
2022-12-01T17:54:39.381Z,18.08
2022-12-01T17:57:07.610Z,18.67
2022-12-01T17:59:37.009Z,18.20
2022-12-01T18:02:05.189Z,16.80
2022-12-01T18:04:32.691Z,16.40
2022-12-01T18:07:00.801Z,16.95
2022-12-01T18:09:27.850Z,17.55
2022-12-01T18:11:59.109Z,18.00
2022-12-01T18:14:26.612Z,17.05
2022-12-01T18:16:54.166Z,17.30
2022-12-01T18:19:21.772Z,17.20
2022-12-01T18:21:50.418Z,17.70
2022-12-01T18:24:17.508Z,17.13
2022-12-01T18:26:44.756Z,17.98
2022-12-01T18:29:18.728Z,19.13
2022-12-01T18:31:46.323Z,20.38
2022-12-01T18:34:13.332Z,20.40
2022-12-01T18:36:41.415Z,19.67
2022-12-01T18:39:09.718Z,18.92
2022-12-01T18:41:37.220Z,17.90
2022-12-01T18:44:05.052Z,18.45
2022-12-01T18:46:32.117Z,20.17
2022-12-01T18:49:03.250Z,20.88
2022-12-01T18:51:31.653Z,20.52
2022-12-01T18:54:00.351Z,16.97
2022-12-01T18:56:28.300Z,17.10
2022-12-01T18:59:00.582Z,18.55
2022-12-01T19:01:32.339Z,21.70
2022-12-01T19:04:00.296Z,20.58
2022-12-01T19:06:29.002Z,21.10
2022-12-01T19:08:56.603Z,20.75
2022-12-01T19:11:23.697Z,18.23
2022-12-01T19:13:50.739Z,18.15
2022-12-01T19:16:20.236Z,17.02
2022-12-01T19:18:47.250Z,19.17
2022-12-01T19:21:16.614Z,16.85
2022-12-01T19:23:44.097Z,18.50
2022-12-01T19:26:18.520Z,17.35
2022-12-01T19:28:45.970Z,18.80
2022-12-01T19:31:16.536Z,17.60
2022-12-01T19:33:46.650Z,19.50
2022-12-01T19:36:19.645Z,19.13
2022-12-01T19:38:47.183Z,18.75
2022-12-01T19:41:15.301Z,19.10
2022-12-01T19:43:42.901Z,17.90
2022-12-01T19:46:13.769Z,18.13
2022-12-01T19:48:41.284Z,19.50
2022-12-01T19:51:16.691Z,19.95
2022-12-01T19:53:43.696Z,19.65
2022-12-01T19:56:10.799Z,18.67
2022-12-01T19:58:37.899Z,18.33
2022-12-01T20:01:11.018Z,17.27
2022-12-01T20:03:39.290Z,17.92
2022-12-01T20:06:19.010Z,18.20
2022-12-01T20:08:46.593Z,19.17
2022-12-01T20:11:14.560Z,19.88
2022-12-01T20:13:44.094Z,20.42
2022-12-01T20:16:16.721Z,20.60
2022-12-01T20:18:44.478Z,18.88
2022-12-01T20:21:16.648Z,18.90
2022-12-01T20:23:44.914Z,17.95
2022-12-01T20:26:12.684Z,18.65
2022-12-01T20:28:40.457Z,19.20
2022-12-01T20:31:14.093Z,18.20
2022-12-01T20:33:41.885Z,17.60
2022-12-01T20:36:10.132Z,19.17
2022-12-01T20:38:38.868Z,18.17
2022-12-01T20:41:06.234Z,18.80
2022-12-01T20:43:34.242Z,18.67
2022-12-01T20:46:02.190Z,20.13
2022-12-01T20:48:29.620Z,17.70
2022-12-01T20:50:56.661Z,19.67
2022-12-01T20:53:23.606Z,19.42
2022-12-01T20:55:50.611Z,20.25
2022-12-01T20:58:17.645Z,20.43
2022-12-01T21:00:44.620Z,19.35
2022-12-01T21:03:12.925Z,19.88
2022-12-01T21:05:42.140Z,19.63
2022-12-01T21:08:12.083Z,20.73
2022-12-01T21:10:45.086Z,19.33
2022-12-01T21:13:42.318Z,19.98
2022-12-01T21:16:28.234Z,17.58
2022-12-01T21:19:06.692Z,18.50
2022-12-01T21:21:40.558Z,17.90
2022-12-01T21:24:17.203Z,17.83
2022-12-01T21:26:59.260Z,18.55
2022-12-01T21:29:29.157Z,18.50
2022-12-01T21:32:00.680Z,18.20
2022-12-01T21:34:29.460Z,18.13
2022-12-01T21:37:00.359Z,18.10
2022-12-01T21:39:29.861Z,17.10
2022-12-01T21:42:00.269Z,17.05
2022-12-01T21:44:38.047Z,17.80
2022-12-01T21:47:22.122Z,18.73
2022-12-01T21:49:54.703Z,17.23
2022-12-01T21:52:30.478Z,16.70
2022-12-01T21:55:23.748Z,18.42
2022-12-01T21:57:52.866Z,17.73
2022-12-01T22:00:31.996Z,17.05
2022-12-01T22:03:17.265Z,17.53
2022-12-01T22:06:13.487Z,17.88
2022-12-01T22:08:40.330Z,18.10
2022-12-01T22:11:19.999Z,18.10
2022-12-01T22:14:16.330Z,17.02
2022-12-01T22:16:45.912Z,16.33
2022-12-01T22:19:15.681Z,18.83
2022-12-01T22:21:50.419Z,18.40
2022-12-01T22:24:37.995Z,16.65
2022-12-01T22:27:32.960Z,17.90
2022-12-01T22:30:08.006Z,16.93
2022-12-01T22:32:37.534Z,17.02
2022-12-01T22:35:31.143Z,17.63
2022-12-01T22:38:32.153Z,17.05
2022-12-01T22:41:05.435Z,16.92
2022-12-01T22:43:50.551Z,17.77
2022-12-01T22:46:26.977Z,16.75
2022-12-01T22:48:58.776Z,17.42
2022-12-01T22:52:05.818Z,18.30
2022-12-01T22:54:44.886Z,18.88
2022-12-01T22:57:27.096Z,17.73
2022-12-01T22:59:55.416Z,18.38
2022-12-01T23:02:27.878Z,18.40
2022-12-01T23:05:01.609Z,18.60
2022-12-01T23:07:37.096Z,17.75
2022-12-01T23:10:14.798Z,19.83
2022-12-01T23:12:42.810Z,19.30
2022-12-01T23:15:29.520Z,17.27
2022-12-01T23:17:58.926Z,19.15
2022-12-01T23:20:35.951Z,17.52
2022-12-01T23:23:15.175Z,18.37
2022-12-01T23:25:43.395Z,18.92
2022-12-01T23:28:11.633Z,17.67
2022-12-01T23:30:42.612Z,18.45
2022-12-01T23:33:09.584Z,19.23
2022-12-01T23:35:59.445Z,19.07
2022-12-01T23:38:31.259Z,19.38
2022-12-01T23:41:01.223Z,18.25
2022-12-01T23:43:33.548Z,19.67
2022-12-01T23:46:12.642Z,20.38
2022-12-01T23:48:48.378Z,18.27
2022-12-01T23:51:18.329Z,20.35
2022-12-01T23:53:46.455Z,20.25
2022-12-01T23:56:19.191Z,19.60
2022-12-01T23:58:46.435Z,21.98
